Time;durP1;ratioP1;P1;durP2;ratioP2;P2;SDS_P1;SDS_P2;PMS_P1;PMS_P2;Temp;Humidity;BMP_temperature;BMP_pressure;BME280_temperature;BME280_humidity;BME280_pressure;Samples;Min_cycle;Max_cycle;Signal;HPM_P1;HPM_P2
2023/07/02 00:02:05;;;;;;;29.05;11.13;;;;;;;;;;5054564;28;20059;-60
2023/07/02 00:04:31;;;;;;;24.10;11.00;;;;;;;;;;5054539;28;20084;-60
2023/07/02 00:06:58;;;;;;;23.88;11.07;;;;;;;;;;5054398;28;20092;-60
2023/07/02 00:09:24;;;;;;;23.45;11.02;;;;;;;;;;5053008;28;20508;-60
2023/07/02 00:11:51;;;;;;;23.55;10.85;;;;;;;;;;5054473;28;20045;-60
2023/07/02 00:14:17;;;;;;;20.77;10.50;;;;;;;;;;5054568;28;20045;-60
2023/07/02 00:16:45;;;;;;;21.67;9.85;;;;;;;;;;5054222;28;20064;-60
2023/07/02 00:19:13;;;;;;;23.05;10.60;;;;;;;;;;5054517;28;20098;-60
2023/07/02 00:21:40;;;;;;;19.00;9.30;;;;;;;;;;5052296;28;20049;-60
2023/07/02 00:24:09;;;;;;;24.63;10.75;;;;;;;;;;5053847;28;20049;-60
2023/07/02 00:26:40;;;;;;;27.73;10.18;;;;;;;;;;5054074;28;20052;-60
2023/07/02 00:29:07;;;;;;;19.70;9.35;;;;;;;;;;5053980;28;20056;-60
2023/07/02 00:31:34;;;;;;;21.25;9.57;;;;;;;;;;5054115;28;20049;-60
2023/07/02 00:34:01;;;;;;;24.05;9.77;;;;;;;;;;5054190;28;20123;-60
2023/07/02 00:36:28;;;;;;;17.60;9.20;;;;;;;;;;5053998;28;20137;-60
2023/07/02 00:38:55;;;;;;;22.52;9.40;;;;;;;;;;5053915;28;20080;-60
2023/07/02 00:41:22;;;;;;;20.98;9.18;;;;;;;;;;5053110;28;20049;-60
2023/07/02 00:43:48;;;;;;;23.38;9.07;;;;;;;;;;5053951;28;20045;-60
2023/07/02 00:46:17;;;;;;;20.85;8.50;;;;;;;;;;5053655;28;20053;-59
2023/07/02 00:48:45;;;;;;;21.30;8.77;;;;;;;;;;5053795;28;20128;-60
2023/07/02 00:51:11;;;;;;;;;;;;;;;;;;5053931;28;20103;-60
2023/07/02 00:53:38;;;;;;;20.05;8.95;;;;;;;;;;5053790;28;19924;-60
2023/07/02 00:56:04;;;;;;;23.00;8.60;;;;;;;;;;5053815;28;20041;-60
2023/07/02 00:58:33;;;;;;;19.75;8.93;;;;;;;;;;5053695;28;20056;-60
2023/07/02 01:00:59;;;;;;;21.92;8.70;;;;;;;;;;5053656;28;20094;-60
2023/07/02 01:03:26;;;;;;;21.92;8.75;;;;;;;;;;5053739;28;20108;-60
2023/07/02 01:05:52;;;;;;;15.70;7.80;;;;;;;;;;5053308;28;20447;-60
2023/07/02 01:08:19;;;;;;;19.10;8.32;;;;;;;;;;5052050;28;20056;-60
2023/07/02 01:10:45;;;;;;;18.48;8.50;;;;;;;;;;5053534;28;20056;-60
2023/07/02 01:13:14;;;;;;;20.73;8.07;;;;;;;;;;5052947;28;20053;-60
2023/07/02 01:15:42;;;;;;;17.70;8.05;;;;;;;;;;5053082;28;20114;-60
2023/07/02 01:18:08;;;;;;;;;;;;;;;;;;5036787;28;20068;-60
2023/07/02 01:20:35;;;;;;;21.15;7.70;;;;;;;;;;5052814;28;20555;-60
2023/07/02 01:23:02;;;;;;;16.38;7.10;;;;;;;;;;5035494;28;20496;-60
2023/07/02 01:25:29;;;;;;;16.63;7.32;;;;;;;;;;5050613;28;20098;-60
2023/07/02 01:27:58;;;;;;;19.67;7.13;;;;;;;;;;5051923;28;20059;-60
2023/07/02 01:30:25;;;;;;;19.13;8.80;;;;;;;;;;5052955;28;20282;-59
2023/07/02 01:32:52;;;;;;;19.63;7.88;;;;;;;;;;5053045;28;20056;-59
2023/07/02 01:35:19;;;;;;;21.13;8.05;;;;;;;;;;5052808;28;20401;-60
2023/07/02 01:37:45;;;;;;;18.60;7.93;;;;;;;;;;5052820;28;20041;-60
2023/07/02 01:40:12;;;;;;;19.27;7.65;;;;;;;;;;5052797;28;20390;-60
2023/07/02 01:42:39;;;;;;;20.33;7.93;;;;;;;;;;5052979;28;20057;-60
2023/07/02 01:45:05;;;;;;;17.45;7.82;;;;;;;;;;5052495;28;20056;-60
2023/07/02 01:47:32;;;;;;;17.50;7.53;;;;;;;;;;5053070;28;20053;-60
2023/07/02 01:49:59;;;;;;;20.65;8.45;;;;;;;;;;5052820;28;20049;-60
2023/07/02 01:52:25;;;;;;;13.85;7.30;;;;;;;;;;5051407;28;20052;-60
2023/07/02 01:54:52;;;;;;;16.30;7.57;;;;;;;;;;5052707;28;20504;-59
2023/07/02 01:57:19;;;;;;;14.38;7.28;;;;;;;;;;5052382;28;20132;-60
2023/07/02 01:59:45;;;;;;;20.15;10.60;;;;;;;;;;5052305;28;20045;-61
2023/07/02 02:02:11;;;;;;;22.42;10.77;;;;;;;;;;5052566;28;20064;-60
2023/07/02 02:04:38;;;;;;;19.75;11.00;;;;;;;;;;5052490;28;20482;-60
2023/07/02 02:07:05;;;;;;;19.02;9.60;;;;;;;;;;5052473;28;20072;-60
2023/07/02 02:09:32;;;;;;;17.02;9.57;;;;;;;;;;5052380;28;20052;-60
2023/07/02 02:11:59;;;;;;;20.63;9.73;;;;;;;;;;5051835;28;20045;-60
2023/07/02 02:14:25;;;;;;;17.73;9.48;;;;;;;;;;5052368;28;20044;-60
2023/07/02 02:16:51;;;;;;;17.33;9.38;;;;;;;;;;5052110;28;20044;-60
2023/07/02 02:19:18;;;;;;;18.75;10.20;;;;;;;;;;5051100;28;20057;-60
2023/07/02 02:21:45;;;;;;;18.42;8.70;;;;;;;;;;5052041;28;20085;-59
2023/07/02 02:24:11;;;;;;;21.83;8.95;;;;;;;;;;5051204;28;20049;-60
2023/07/02 02:26:37;;;;;;;20.73;9.35;;;;;;;;;;5050717;28;20493;-60
2023/07/02 02:29:04;;;;;;;18.58;9.20;;;;;;;;;;5044166;28;20049;-60
2023/07/02 02:31:30;;;;;;;17.83;9.15;;;;;;;;;;5044605;28;20465;-60
2023/07/02 02:33:57;;;;;;;17.45;9.20;;;;;;;;;;5051869;28;20045;-60
2023/07/02 02:36:23;;;;;;;16.98;8.98;;;;;;;;;;5044990;28;20049;-60
2023/07/02 02:38:50;;;;;;;16.35;7.95;;;;;;;;;;5051845;28;20049;-60
2023/07/02 02:41:16;;;;;;;17.80;8.23;;;;;;;;;;5051837;28;20040;-60
2023/07/02 02:43:43;;;;;;;16.48;8.52;;;;;;;;;;5051793;28;20102;-60
2023/07/02 02:46:11;;;;;;;15.23;7.93;;;;;;;;;;5051629;28;20067;-60
2023/07/02 02:48:37;;;;;;;16.63;8.48;;;;;;;;;;5051592;28;20060;-59
2023/07/02 02:51:04;;;;;;;17.38;8.02;;;;;;;;;;5051558;28;20059;-60
2023/07/02 02:53:30;;;;;;;18.88;8.95;;;;;;;;;;5051405;28;20508;-60
2023/07/02 02:55:57;;;;;;;16.63;9.07;;;;;;;;;;5051674;28;20132;-60
2023/07/02 02:58:23;;;;;;;17.45;8.55;;;;;;;;;;5051375;28;20045;-60
2023/07/02 03:00:51;;;;;;;19.40;8.43;;;;;;;;;;5051409;28;20103;-60
2023/07/02 03:03:17;;;;;;;20.42;9.00;;;;;;;;;;5051501;28;20064;-60
2023/07/02 03:05:46;;;;;;;20.63;8.73;;;;;;;;;;5050946;28;20531;-60
2023/07/02 03:08:13;;;;;;;13.55;7.63;;;;;;;;;;5051509;28;20053;-60
2023/07/02 03:10:39;;;;;;;17.90;8.23;;;;;;;;;;5051214;28;20057;-60
2023/07/02 03:13:06;;;;;;;14.88;7.97;;;;;;;;;;5051661;28;20492;-60
2023/07/02 03:15:32;;;;;;;16.08;7.65;;;;;;;;;;5051267;28;20041;-60
2023/07/02 03:17:58;;;;;;;10.55;7.05;;;;;;;;;;5051603;28;20049;-60
2023/07/02 03:20:25;;;;;;;14.20;7.72;;;;;;;;;;5051347;28;20049;-60
2023/07/02 03:22:51;;;;;;;19.25;8.57;;;;;;;;;;5051276;28;20045;-60
2023/07/02 03:25:18;;;;;;;15.60;7.57;;;;;;;;;;5051084;28;20496;-60
2023/07/02 03:27:44;;;;;;;17.17;8.00;;;;;;;;;;5051419;28;20057;-60
2023/07/02 03:30:11;;;;;;;15.05;8.52;;;;;;;;;;5051564;28;20052;-60
2023/07/02 03:32:37;;;;;;;17.05;8.18;;;;;;;;;;5051037;28;20090;-60
2023/07/02 03:35:04;;;;;;;15.85;7.65;;;;;;;;;;5051215;28;20049;-59
2023/07/02 03:37:31;;;;;;;16.90;8.45;;;;;;;;;;5051284;28;20044;-60
2023/07/02 03:39:58;;;;;;;18.67;8.10;;;;;;;;;;5051021;28;20048;-60
2023/07/02 03:42:25;;;;;;;14.15;7.75;;;;;;;;;;5051428;28;20487;-60
2023/07/02 03:44:51;;;;;;;17.50;8.13;;;;;;;;;;5050811;28;20052;-60
2023/07/02 03:47:19;;;;;;;16.42;8.57;;;;;;;;;;5051249;28;20477;-59
2023/07/02 03:49:46;;;;;;;11.98;7.45;;;;;;;;;;5050965;28;20055;-59
2023/07/02 03:52:12;;;;;;;15.65;8.20;;;;;;;;;;5051232;28;20061;-60
2023/07/02 03:54:39;;;;;;;12.40;7.53;;;;;;;;;;5050887;28;20056;-60
2023/07/02 03:57:05;;;;;;;13.00;8.02;;;;;;;;;;5051123;28;20052;-59
2023/07/02 03:59:32;;;;;;;13.35;7.68;;;;;;;;;;5050902;28;20052;-60
2023/07/02 04:01:58;;;;;;;16.10;7.95;;;;;;;;;;5050911;28;20492;-60
2023/07/02 04:04:24;;;;;;;18.05;7.75;;;;;;;;;;5050904;28;20083;-60
2023/07/02 04:06:51;;;;;;;14.98;6.95;;;;;;;;;;5050861;28;20053;-60
2023/07/02 04:09:18;;;;;;;14.73;8.07;;;;;;;;;;5051149;28;20118;-59
2023/07/02 04:11:45;;;;;;;13.13;7.27;;;;;;;;;;5051082;28;20071;-60
2023/07/02 04:14:11;;;;;;;12.68;7.03;;;;;;;;;;5050899;28;20048;-60
2023/07/02 04:16:38;;;;;;;17.17;7.43;;;;;;;;;;5051566;28;20456;-60
2023/07/02 04:19:04;;;;;;;12.48;6.78;;;;;;;;;;5054282;28;20049;-60
2023/07/02 04:21:31;;;;;;;16.95;6.65;;;;;;;;;;5054081;28;20497;-60
2023/07/02 04:23:57;;;;;;;15.73;7.38;;;;;;;;;;5054445;28;20057;-60
2023/07/02 04:26:26;;;;;;;15.25;6.57;;;;;;;;;;5053471;28;20056;-60
2023/07/02 04:29:12;;;;;;;14.02;6.85;;;;;;;;;;5053628;28;20160;-60
2023/07/02 04:31:39;;;;;;;15.48;6.85;;;;;;;;;;5053348;28;20409;-60
2023/07/02 04:34:05;;;;;;;15.85;6.43;;;;;;;;;;5025456;28;20090;-60
2023/07/02 04:36:32;;;;;;;16.08;6.10;;;;;;;;;;5053692;28;20041;-60
2023/07/02 04:38:58;;;;;;;18.27;6.38;;;;;;;;;;5053828;28;20040;-60
2023/07/02 04:41:26;;;;;;;16.15;6.85;;;;;;;;;;5054202;28;20053;-60
2023/07/02 04:43:52;;;;;;;15.40;6.28;;;;;;;;;;5053780;28;20045;-60
2023/07/02 04:46:18;;;;;;;14.27;5.85;;;;;;;;;;5053675;28;20520;-60
2023/07/02 04:48:45;;;;;;;16.33;6.93;;;;;;;;;;5054137;28;20048;-60
2023/07/02 04:51:12;;;;;;;13.52;5.95;;;;;;;;;;5053809;28;20059;-60
2023/07/02 04:53:38;;;;;;;11.35;5.70;;;;;;;;;;5052341;28;20489;-60
2023/07/02 04:56:05;;;;;;;12.25;6.18;;;;;;;;;;5053663;28;20416;-60
2023/07/02 04:58:34;;;;;;;17.25;6.45;;;;;;;;;;5053617;28;20124;-61
2023/07/02 05:01:00;;;;;;;15.75;5.78;;;;;;;;;;5053542;28;20057;-60
2023/07/02 05:03:27;;;;;;;18.75;6.35;;;;;;;;;;5053496;28;20052;-60
2023/07/02 05:05:53;;;;;;;14.57;6.50;;;;;;;;;;5053722;28;20151;-60
2023/07/02 05:08:20;;;;;;;14.25;5.63;;;;;;;;;;5053577;28;20111;-60
2023/07/02 05:10:46;;;;;;;14.32;5.80;;;;;;;;;;5053506;28;20060;-60
2023/07/02 05:13:13;;;;;;;13.07;5.63;;;;;;;;;;5053381;28;20460;-60
2023/07/02 05:15:40;;;;;;;16.88;6.57;;;;;;;;;;5053245;28;20049;-61
2023/07/02 05:18:07;;;;;;;12.50;5.55;;;;;;;;;;5053486;28;20047;-60
2023/07/02 05:20:33;;;;;;;14.10;6.15;;;;;;;;;;5053215;28;20045;-60
2023/07/02 05:23:00;;;;;;;14.05;5.80;;;;;;;;;;5040755;28;20049;-60
2023/07/02 05:25:26;;;;;;;17.95;6.32;;;;;;;;;;5040623;28;20052;-60
2023/07/02 05:27:53;;;;;;;15.80;6.18;;;;;;;;;;5052929;28;20049;-60
2023/07/02 05:30:19;;;;;;;14.57;5.55;;;;;;;;;;5053149;28;20049;-60
2023/07/02 05:32:46;;;;;;;16.75;5.72;;;;;;;;;;5053107;28;20511;-60
2023/07/02 05:35:12;;;;;;;16.45;6.00;;;;;;;;;;5053023;28;20106;-60
2023/07/02 05:37:39;;;;;;;17.95;5.70;;;;;;;;;;5052787;28;20064;-60
2023/07/02 05:40:06;;;;;;;15.60;5.90;;;;;;;;;;5053023;28;20067;-60
2023/07/02 05:42:32;;;;;;;15.73;5.38;;;;;;;;;;5052680;28;20099;-60
2023/07/02 05:44:58;;;;;;;15.52;5.88;;;;;;;;;;5052603;28;20076;-60
2023/07/02 05:47:25;;;;;;;13.38;5.75;;;;;;;;;;5052896;28;20475;-60
2023/07/02 05:49:55;;;;;;;13.45;5.53;;;;;;;;;;5052860;28;20051;-60
2023/07/02 05:52:22;;;;;;;15.80;5.70;;;;;;;;;;5052915;28;20127;-60
2023/07/02 05:54:49;;;;;;;15.15;5.68;;;;;;;;;;5052430;28;20080;-60
2023/07/02 05:57:16;;;;;;;12.57;5.23;;;;;;;;;;5052682;28;20060;-60
2023/07/02 05:59:42;;;;;;;12.35;5.50;;;;;;;;;;5052548;28;20045;-60
2023/07/02 06:02:08;;;;;;;15.13;4.75;;;;;;;;;;5052654;28;20448;-61
2023/07/02 06:04:35;;;;;;;18.05;5.82;;;;;;;;;;5052198;28;20067;-60
2023/07/02 06:07:01;;;;;;;12.75;5.45;;;;;;;;;;5052256;28;20060;-60
2023/07/02 06:09:28;;;;;;;14.43;5.35;;;;;;;;;;5052641;28;20049;-60
2023/07/02 06:11:54;;;;;;;18.58;5.40;;;;;;;;;;5036845;28;20056;-60
2023/07/02 06:14:23;;;;;;;19.08;5.30;;;;;;;;;;5052515;28;20060;-60
2023/07/02 06:16:49;;;;;;;12.68;5.38;;;;;;;;;;5052219;28;20053;-60
2023/07/02 06:19:16;;;;;;;12.25;4.97;;;;;;;;;;5052225;28;20041;-60
2023/07/02 06:21:42;;;;;;;13.98;5.20;;;;;;;;;;5052120;28;20049;-60
2023/07/02 06:24:09;;;;;;;12.63;5.00;;;;;;;;;;5052259;28;20226;-60
2023/07/02 06:26:35;;;;;;;13.25;4.75;;;;;;;;;;5051857;28;20053;-60
2023/07/02 06:29:02;;;;;;;12.43;4.93;;;;;;;;;;5052161;28;20069;-60
2023/07/02 06:31:28;;;;;;;11.30;4.63;;;;;;;;;;5052074;28;20060;-59
2023/07/02 06:33:55;;;;;;;11.45;4.45;;;;;;;;;;5051651;28;20056;-60
2023/07/02 06:36:21;;;;;;;12.32;4.72;;;;;;;;;;5052255;28;20067;-59
2023/07/02 06:38:48;;;;;;;15.18;4.95;;;;;;;;;;5051561;28;20049;-60
2023/07/02 06:41:14;;;;;;;11.32;4.47;;;;;;;;;;5051312;28;20102;-60
2023/07/02 06:43:44;;;;;;;10.77;4.35;;;;;;;;;;5038242;28;20050;-60
2023/07/02 06:46:11;;;;;;;13.90;4.82;;;;;;;;;;5042014;28;20099;-60
2023/07/02 06:48:37;;;;;;;10.68;4.18;;;;;;;;;;5036759;28;20472;-60
2023/07/02 06:51:04;;;;;;;9.23;3.80;;;;;;;;;;5032505;28;20148;-60
2023/07/02 06:53:30;;;;;;;10.05;4.43;;;;;;;;;;5046313;28;20048;-60
2023/07/02 06:55:57;;;;;;;9.90;4.13;;;;;;;;;;5051288;28;20049;-60
2023/07/02 06:58:23;;;;;;;15.35;4.43;;;;;;;;;;5048982;28;20045;-60
2023/07/02 07:00:50;;;;;;;12.75;4.35;;;;;;;;;;5051186;28;20107;-59
2023/07/02 07:03:17;;;;;;;10.68;4.15;;;;;;;;;;5043714;28;20111;-59
2023/07/02 07:05:44;;;;;;;12.15;4.25;;;;;;;;;;5043805;28;20057;-58
2023/07/02 07:08:10;;;;;;;10.77;4.35;;;;;;;;;;5030766;28;20050;-60
2023/07/02 07:10:37;;;;;;;10.82;3.65;;;;;;;;;;5050684;28;20055;-59
2023/07/02 07:13:04;;;;;;;11.45;4.10;;;;;;;;;;5050754;28;20500;-59
2023/07/02 07:15:33;;;;;;;14.05;4.47;;;;;;;;;;5038169;28;20068;-59
2023/07/02 07:17:59;;;;;;;11.90;3.47;;;;;;;;;;5030581;28;20432;-60
2023/07/02 07:20:26;;;;;;;11.67;4.30;;;;;;;;;;5031058;28;20136;-60
2023/07/02 07:22:52;;;;;;;11.95;4.10;;;;;;;;;;5046437;28;20282;-58
2023/07/02 07:25:19;;;;;;;9.18;3.55;;;;;;;;;;5031063;28;20056;-59
2023/07/02 07:27:45;;;;;;;9.20;3.58;;;;;;;;;;5030939;28;20057;-59
2023/07/02 07:30:12;;;;;;;10.30;3.85;;;;;;;;;;5031040;28;20508;-59
2023/07/02 07:32:39;;;;;;;14.05;3.75;;;;;;;;;;5034894;28;20060;-60
2023/07/02 07:35:05;;;;;;;12.17;3.67;;;;;;;;;;5050706;28;20083;-60
2023/07/02 07:37:32;;;;;;;10.13;3.97;;;;;;;;;;5038450;28;20076;-60
2023/07/02 07:39:58;;;;;;;10.98;3.25;;;;;;;;;;5046789;28;20056;-60
2023/07/02 07:42:25;;;;;;;10.70;3.65;;;;;;;;;;5051044;28;20091;-60
2023/07/02 07:44:52;;;;;;;10.80;3.85;;;;;;;;;;5050532;28;20805;-60
2023/07/02 07:47:18;;;;;;;;;;;;;;;;;;5033946;28;20064;-60
2023/07/02 07:49:46;;;;;;;9.33;3.40;;;;;;;;;;5050647;28;19960;-60
2023/07/02 07:52:12;;;;;;;10.75;3.38;;;;;;;;;;5053679;28;20293;-61
2023/07/02 07:54:39;;;;;;;11.97;3.70;;;;;;;;;;5054464;28;20053;-60
2023/07/02 07:57:05;;;;;;;9.98;3.72;;;;;;;;;;5042946;28;20049;-60
2023/07/02 07:59:32;;;;;;;12.30;3.80;;;;;;;;;;5053040;28;20041;-60
2023/07/02 08:01:58;;;;;;;12.37;3.87;;;;;;;;;;5050924;28;20285;-60
2023/07/02 08:04:25;;;;;;;10.17;3.50;;;;;;;;;;5051011;28;20149;-60
2023/07/02 08:06:51;;;;;;;10.27;3.30;;;;;;;;;;5052673;28;20057;-60
2023/07/02 08:09:18;;;;;;;10.35;3.58;;;;;;;;;;5054606;28;20044;-60
2023/07/02 08:11:46;;;;;;;11.93;3.50;;;;;;;;;;5054106;28;20053;-60
2023/07/02 08:14:12;;;;;;;10.50;3.67;;;;;;;;;;5054596;28;20045;-60
2023/07/02 08:16:39;;;;;;;9.83;3.47;;;;;;;;;;5054291;28;20053;-60
2023/07/02 08:19:05;;;;;;;11.30;3.43;;;;;;;;;;5054119;28;20094;-60
2023/07/02 08:21:32;;;;;;;8.88;3.40;;;;;;;;;;5054474;28;20282;-60
2023/07/02 08:23:58;;;;;;;10.98;3.28;;;;;;;;;;5054248;28;20052;-60
2023/07/02 08:26:25;;;;;;;10.45;2.97;;;;;;;;;;5054083;28;20045;-60
2023/07/02 08:28:51;;;;;;;7.83;2.60;;;;;;;;;;5054166;28;20049;-60
2023/07/02 08:31:18;;;;;;;7.50;2.90;;;;;;;;;;5054089;28;20053;-60
2023/07/02 08:33:44;;;;;;;9.23;3.08;;;;;;;;;;5053988;28;20387;-59
2023/07/02 08:36:11;;;;;;;11.43;3.30;;;;;;;;;;5046556;28;20041;-59
2023/07/02 08:38:39;;;;;;;9.30;3.42;;;;;;;;;;5034168;28;20213;-59
2023/07/02 08:41:06;;;;;;;9.02;3.00;;;;;;;;;;5033947;28;20417;-60
2023/07/02 08:43:32;;;;;;;10.07;3.50;;;;;;;;;;5033977;28;20053;-60
2023/07/02 08:45:59;;;;;;;10.23;3.10;;;;;;;;;;5049707;28;20052;-59
2023/07/02 08:48:26;;;;;;;10.02;3.20;;;;;;;;;;5053799;28;20049;-60
2023/07/02 08:50:52;;;;;;;8.25;3.10;;;;;;;;;;5054005;28;20400;-60
2023/07/02 08:53:25;;;;;;;8.40;3.33;;;;;;;;;;5052970;28;20048;-59
2023/07/02 08:55:51;;;;;;;7.45;3.00;;;;;;;;;;5053293;28;20401;-60
2023/07/02 08:58:18;;;;;;;12.10;3.92;;;;;;;;;;5045381;28;20059;-59
2023/07/02 09:01:03;;;;;;;9.40;3.53;;;;;;;;;;5034280;28;20084;-59
2023/07/02 09:03:29;;;;;;;13.38;3.80;;;;;;;;;;5032659;28;20128;-59
2023/07/02 09:05:56;;;;;;;14.13;3.78;;;;;;;;;;5046080;28;20048;-59
2023/07/02 09:08:26;;;;;;;14.45;4.05;;;;;;;;;;5053675;28;20052;-59
2023/07/02 09:10:53;;;;;;;11.05;3.75;;;;;;;;;;5053473;28;20071;-59
2023/07/02 09:13:19;;;;;;;14.95;3.72;;;;;;;;;;5053582;28;20044;-60
2023/07/02 09:15:46;;;;;;;12.00;3.73;;;;;;;;;;5046545;28;20128;-59
2023/07/02 09:18:19;;;;;;;14.07;3.70;;;;;;;;;;5033551;28;20056;-59
2023/07/02 09:20:46;;;;;;;10.65;4.18;;;;;;;;;;5040387;28;20048;-59
2023/07/02 09:23:13;;;;;;;9.23;3.40;;;;;;;;;;5051206;28;20492;-59
2023/07/02 09:25:40;;;;;;;13.38;3.38;;;;;;;;;;5051620;28;20053;-60
2023/07/02 09:28:23;;;;;;;15.30;3.90;;;;;;;;;;5052690;28;20511;-59
2023/07/02 09:30:53;;;;;;;12.88;3.85;;;;;;;;;;5052092;28;20045;-59
2023/07/02 09:33:20;;;;;;;11.15;3.25;;;;;;;;;;5052904;28;20087;-59
2023/07/02 09:35:47;;;;;;;11.82;4.13;;;;;;;;;;5052771;28;20480;-59
2023/07/02 09:38:14;;;;;;;10.38;3.35;;;;;;;;;;5053179;28;20476;-60
2023/07/02 09:40:49;;;;;;;11.05;4.05;;;;;;;;;;5053164;28;20459;-59
2023/07/02 09:43:17;;;;;;;9.93;4.07;;;;;;;;;;5052943;28;20144;-59
2023/07/02 09:45:45;;;;;;;10.48;3.40;;;;;;;;;;5052718;28;20053;-60
2023/07/02 09:48:17;;;;;;;12.75;3.45;;;;;;;;;;5053021;28;20049;-59
2023/07/02 09:50:44;;;;;;;11.60;3.97;;;;;;;;;;5051544;28;20049;-59
2023/07/02 09:53:11;;;;;;;11.95;3.33;;;;;;;;;;5052942;28;20057;-59
2023/07/02 09:55:38;;;;;;;12.52;3.17;;;;;;;;;;5047712;28;20045;-60
2023/07/02 09:58:05;;;;;;;9.45;2.90;;;;;;;;;;5047729;28;20060;-59
2023/07/02 10:00:32;;;;;;;12.32;3.10;;;;;;;;;;5048371;28;20099;-60
2023/07/02 10:03:00;;;;;;;10.80;3.00;;;;;;;;;;5052028;28;20052;-59
2023/07/02 10:05:30;;;;;;;12.55;3.65;;;;;;;;;;5051536;28;20048;-60
2023/07/02 10:07:58;;;;;;;11.82;3.35;;;;;;;;;;5052654;28;20064;-60
2023/07/02 10:10:28;;;;;;;9.18;2.83;;;;;;;;;;5046247;28;20096;-60
2023/07/02 10:12:54;;;;;;;11.52;3.28;;;;;;;;;;5033888;28;20111;-60
2023/07/02 10:15:24;;;;;;;10.50;2.90;;;;;;;;;;5051314;28;20481;-59
2023/07/02 10:17:55;;;;;;;11.05;3.03;;;;;;;;;;5052333;28;20041;-60
2023/07/02 10:20:32;;;;;;;9.63;2.72;;;;;;;;;;5045084;28;20049;-60
2023/07/02 10:22:59;;;;;;;13.27;2.38;;;;;;;;;;5046867;28;20056;-60
2023/07/02 10:25:37;;;;;;;6.60;2.28;;;;;;;;;;5050933;28;20044;-60
2023/07/02 10:28:15;;;;;;;9.73;2.75;;;;;;;;;;5051961;28;20084;-60
2023/07/02 10:30:42;;;;;;;8.23;2.03;;;;;;;;;;5052580;28;20492;-60
2023/07/02 10:33:12;;;;;;;6.72;2.20;;;;;;;;;;5052057;28;20098;-60
2023/07/02 10:35:41;;;;;;;8.68;2.50;;;;;;;;;;5052113;28;20052;-60
2023/07/02 10:38:13;;;;;;;9.25;2.58;;;;;;;;;;5051897;28;20057;-60
2023/07/02 10:40:41;;;;;;;7.18;2.15;;;;;;;;;;5052091;28;20049;-60
2023/07/02 10:43:08;;;;;;;6.07;1.80;;;;;;;;;;5051977;28;20055;-60
2023/07/02 10:45:34;;;;;;;9.32;2.47;;;;;;;;;;5051896;28;20110;-60
2023/07/02 10:48:08;;;;;;;5.25;1.90;;;;;;;;;;5051595;28;20546;-60
2023/07/02 10:50:34;;;;;;;5.80;2.33;;;;;;;;;;5051875;28;20061;-59
2023/07/02 10:53:02;;;;;;;8.25;2.38;;;;;;;;;;5051590;28;20044;-60
2023/07/02 10:55:29;;;;;;;7.20;2.38;;;;;;;;;;5051763;28;20056;-59
2023/07/02 10:58:03;;;;;;;9.15;2.28;;;;;;;;;;5051758;28;20053;-60
2023/07/02 11:00:30;;;;;;;7.50;2.13;;;;;;;;;;5051544;28;20583;-59
2023/07/02 11:02:56;;;;;;;8.60;2.30;;;;;;;;;;5048849;28;20062;-60
2023/07/02 11:05:23;;;;;;;8.48;2.28;;;;;;;;;;5038247;28;20049;-60
2023/07/02 11:07:56;;;;;;;7.35;2.20;;;;;;;;;;5050490;28;20056;-60
2023/07/02 11:10:24;;;;;;;7.85;2.10;;;;;;;;;;5051641;28;20052;-60
2023/07/02 11:12:50;;;;;;;8.63;2.40;;;;;;;;;;5050313;28;20053;-59
2023/07/02 11:15:20;;;;;;;7.85;2.40;;;;;;;;;;5051152;28;20049;-59
2023/07/02 11:17:46;;;;;;;7.68;2.15;;;;;;;;;;5050120;28;20543;-59
2023/07/02 11:20:14;;;;;;;8.15;2.50;;;;;;;;;;5050906;28;20572;-60
2023/07/02 11:22:41;;;;;;;9.57;2.38;;;;;;;;;;5051376;28;20048;-59
2023/07/02 11:25:11;;;;;;;7.78;2.40;;;;;;;;;;5040311;28;20055;-60
2023/07/02 11:27:38;;;;;;;6.97;2.40;;;;;;;;;;5037611;28;20057;-60
2023/07/02 11:30:05;;;;;;;5.57;2.10;;;;;;;;;;5041054;28;20056;-60
2023/07/02 11:32:34;;;;;;;7.72;2.00;;;;;;;;;;5042357;28;20081;-61
2023/07/02 11:35:01;;;;;;;5.75;1.52;;;;;;;;;;5038510;28;20129;-60
2023/07/02 11:37:28;;;;;;;7.13;2.67;;;;;;;;;;5035200;28;20041;-60
2023/07/02 11:39:54;;;;;;;5.97;1.80;;;;;;;;;;5036356;28;20059;-60
2023/07/02 11:42:21;;;;;;;7.32;2.15;;;;;;;;;;5033926;28;20537;-60
2023/07/02 11:44:48;;;;;;;;;;;;;;;;;;5041864;28;20394;-60
2023/07/02 11:47:14;;;;;;;;;;;;;;;;;;5041153;28;19925;-60
2023/07/02 11:49:41;;;;;;;5.72;2.22;;;;;;;;;;5032286;28;20347;-60
2023/07/02 11:52:08;;;;;;;8.73;2.50;;;;;;;;;;5034361;28;20509;-61
2023/07/02 11:54:35;;;;;;;6.88;2.08;;;;;;;;;;5034137;28;20053;-60
2023/07/02 11:57:02;;;;;;;7.47;1.98;;;;;;;;;;5040297;28;20434;-60
2023/07/02 11:59:28;;;;;;;;;;;;;;;;;;5052685;28;20095;-60
2023/07/02 12:01:54;;;;;;;8.02;2.05;;;;;;;;;;5054208;28;19925;-60
2023/07/02 12:04:21;;;;;;;;;;;;;;;;;;5054603;28;20106;-60
2023/07/02 12:06:47;;;;;;;7.38;2.00;;;;;;;;;;5036208;28;19931;-60
2023/07/02 12:09:14;;;;;;;4.50;1.73;;;;;;;;;;5034190;28;20053;-60
2023/07/02 12:11:40;;;;;;;;;;;;;;;;;;5034257;28;20053;-60
2023/07/02 12:14:07;;;;;;;6.85;1.77;;;;;;;;;;5040060;28;20307;-61
2023/07/02 12:16:33;;;;;;;5.80;2.08;;;;;;;;;;5040290;28;20413;-60
2023/07/02 12:19:00;;;;;;;8.30;1.88;;;;;;;;;;5034716;28;20041;-60
2023/07/02 12:21:26;;;;;;;5.43;1.65;;;;;;;;;;5033871;28;20045;-61
2023/07/02 12:23:53;;;;;;;;;;;;;;;;;;5034501;28;20053;-60
2023/07/02 12:26:19;;;;;;;4.70;1.77;;;;;;;;;;5046128;28;19940;-60
2023/07/02 12:28:46;;;;;;;6.47;1.70;;;;;;;;;;5053721;28;20049;-60
2023/07/02 12:31:13;;;;;;;;;;;;;;;;;;5039513;28;20052;-61
2023/07/02 12:33:40;;;;;;;7.30;1.92;;;;;;;;;;5039072;28;20011;-61
2023/07/02 12:36:06;;;;;;;6.43;2.03;;;;;;;;;;5053678;28;20051;-60
2023/07/02 12:38:33;;;;;;;6.28;1.65;;;;;;;;;;5052844;28;20048;-60
2023/07/02 12:40:59;;;;;;;5.68;2.20;;;;;;;;;;5053384;28;20481;-60
2023/07/02 12:43:26;;;;;;;9.68;2.00;;;;;;;;;;5053505;28;20049;-60
2023/07/02 12:45:52;;;;;;;5.63;1.80;;;;;;;;;;5051185;28;20061;-60
2023/07/02 12:48:19;;;;;;;;;;;;;;;;;;5053819;28;20055;-60
2023/07/02 12:50:58;;;;;;;6.30;1.65;;;;;;;;;;5053484;28;20007;-60
2023/07/02 12:53:25;;;;;;;6.53;1.73;;;;;;;;;;5046148;28;20053;-63
2023/07/02 12:55:52;;;;;;;6.80;2.10;;;;;;;;;;5033419;28;20145;-62
2023/07/02 12:58:18;;;;;;;5.93;1.80;;;;;;;;;;5033408;28;20049;-62
2023/07/02 13:00:46;;;;;;;5.32;1.73;;;;;;;;;;5047267;28;20048;-61
2023/07/02 13:03:13;;;;;;;6.88;2.08;;;;;;;;;;5053314;28;20503;-61
2023/07/02 13:05:40;;;;;;;8.02;2.10;;;;;;;;;;5053059;28;20051;-62
2023/07/02 13:08:06;;;;;;;8.77;2.22;;;;;;;;;;5053255;28;20087;-60
2023/07/02 13:10:33;;;;;;;;;;;;;;;;;;5053402;28;20041;-60
2023/07/02 13:13:00;;;;;;;5.50;1.98;;;;;;;;;;5052750;28;20339;-60
2023/07/02 13:15:39;;;;;;;6.63;2.10;;;;;;;;;;5052782;28;20056;-60
2023/07/02 13:18:05;;;;;;;6.43;2.08;;;;;;;;;;5052847;28;20048;-60
2023/07/02 13:20:32;;;;;;;5.28;2.00;;;;;;;;;;5052871;28;20056;-60
2023/07/02 13:22:58;;;;;;;7.38;2.00;;;;;;;;;;5052579;28;20064;-60
2023/07/02 13:25:25;;;;;;;6.93;2.17;;;;;;;;;;5052865;28;20056;-60
2023/07/02 13:27:51;;;;;;;6.32;2.17;;;;;;;;;;5052948;28;20048;-60
2023/07/02 13:30:18;;;;;;;6.47;2.08;;;;;;;;;;5052443;28;20095;-60
2023/07/02 13:32:44;;;;;;;7.75;2.22;;;;;;;;;;5052712;28;20056;-60
2023/07/02 13:35:10;;;;;;;6.90;2.10;;;;;;;;;;5052163;28;20137;-60
2023/07/02 13:37:37;;;;;;;8.35;2.20;;;;;;;;;;5052582;28;20052;-60
2023/07/02 13:40:05;;;;;;;10.68;2.38;;;;;;;;;;5052338;28;20083;-60
2023/07/02 13:42:31;;;;;;;7.68;2.55;;;;;;;;;;5052332;28;20051;-60
2023/07/02 13:44:58;;;;;;;7.07;2.08;;;;;;;;;;5050155;28;20049;-60
2023/07/02 13:47:24;;;;;;;5.68;2.30;;;;;;;;;;5052365;28;20060;-60
2023/07/02 13:49:52;;;;;;;6.25;2.20;;;;;;;;;;5052008;28;20124;-60
2023/07/02 13:52:18;;;;;;;5.50;2.28;;;;;;;;;;5052093;28;20548;-60
2023/07/02 13:54:45;;;;;;;8.20;2.30;;;;;;;;;;5051905;28;20053;-60
2023/07/02 13:57:13;;;;;;;7.78;2.47;;;;;;;;;;5052277;28;20049;-60
2023/07/02 13:59:40;;;;;;;7.88;2.80;;;;;;;;;;5052190;28;20052;-60
2023/07/02 14:02:06;;;;;;;6.22;2.25;;;;;;;;;;5051998;28;20451;-60
2023/07/02 14:04:33;;;;;;;7.13;2.33;;;;;;;;;;5051844;28;20045;-60
2023/07/02 14:06:59;;;;;;;7.82;2.22;;;;;;;;;;5051715;28;20110;-60
2023/07/02 14:09:26;;;;;;;7.55;2.58;;;;;;;;;;5047275;28;20045;-62
2023/07/02 14:11:52;;;;;;;8.48;2.30;;;;;;;;;;5023825;28;20119;-63
2023/07/02 14:14:19;;;;;;;4.82;2.10;;;;;;;;;;5030461;28;20057;-62
2023/07/02 14:16:45;;;;;;;6.55;2.40;;;;;;;;;;5039800;28;20456;-62
2023/07/02 14:19:12;;;;;;;8.25;2.60;;;;;;;;;;5041575;28;20127;-63
2023/07/02 14:21:38;;;;;;;6.55;2.20;;;;;;;;;;5051586;28;20499;-61
2023/07/02 14:24:05;;;;;;;7.47;2.55;;;;;;;;;;5047925;28;20508;-62
2023/07/02 14:26:31;;;;;;;6.57;2.42;;;;;;;;;;5042008;28;20122;-62
2023/07/02 14:28:58;;;;;;;6.50;2.45;;;;;;;;;;5042184;28;20064;-61
2023/07/02 14:31:24;;;;;;;8.68;2.70;;;;;;;;;;5032243;28;20054;-63
2023/07/02 14:33:51;;;;;;;7.88;2.67;;;;;;;;;;5023488;28;20054;-63
2023/07/02 14:36:17;;;;;;;9.55;2.53;;;;;;;;;;5031434;28;20076;-62
2023/07/02 14:38:44;;;;;;;6.55;2.25;;;;;;;;;;5032301;28;20061;-63